createdAt,value
2019-03-03T00:01:26.731Z,53.03
2019-03-03T00:06:31.580Z,47.30
2019-03-03T00:11:36.329Z,54.73
2019-03-03T00:16:41.068Z,60.10
2019-03-03T00:21:45.913Z,54.93
2019-03-03T00:26:50.654Z,62.83
2019-03-03T00:31:55.400Z,46.13
2019-03-03T00:37:01.780Z,44.00
2019-03-03T00:42:18.700Z,33.73
2019-03-03T00:47:24.982Z,29.83
2019-03-03T00:52:31.371Z,29.40
2019-03-03T00:57:54.266Z,28.27
2019-03-03T01:03:12.771Z,29.83
2019-03-03T01:08:19.184Z,25.33
2019-03-03T01:13:25.562Z,24.43
2019-03-03T01:18:34.911Z,26.63
2019-03-03T01:23:41.292Z,45.10
2019-03-03T01:28:47.382Z,30.47
2019-03-03T01:33:53.641Z,26.27
2019-03-03T01:38:58.394Z,47.43
2019-03-03T01:44:03.138Z,42.87
2019-03-03T01:49:07.874Z,32.73
2019-03-03T01:54:12.622Z,27.57
2019-03-03T01:59:17.359Z,33.30
2019-03-03T02:04:22.209Z,131.20
2019-03-03T02:09:28.317Z,319.93
2019-03-03T02:14:33.120Z,123.57
2019-03-03T02:19:37.863Z,54.20
2019-03-03T02:24:42.961Z,41.70
2019-03-03T02:29:47.804Z,64.03
2019-03-03T02:34:52.842Z,76.20
2019-03-03T02:39:57.654Z,85.43
2019-03-03T02:45:02.511Z,73.33
2019-03-03T02:50:11.744Z,41.63
2019-03-03T02:55:19.317Z,41.80
2019-03-03T03:00:24.713Z,39.97
2019-03-03T03:05:34.067Z,36.47
2019-03-03T03:10:43.328Z,37.83
2019-03-03T03:15:53.996Z,33.20
2019-03-03T03:21:09.694Z,38.50
2019-03-03T03:26:25.497Z,43.00
2019-03-03T03:31:34.968Z,40.87
2019-03-03T03:37:00.585Z,41.00
2019-03-03T03:42:23.450Z,34.40
2019-03-03T03:47:29.664Z,41.40
2019-03-03T03:52:48.116Z,39.10
2019-03-03T03:57:55.601Z,37.97
2019-03-03T04:03:01.872Z,32.40
2019-03-03T04:08:11.134Z,39.10
2019-03-03T04:13:27.542Z,48.30
2019-03-03T04:18:36.996Z,41.30
2019-03-03T04:23:59.761Z,49.47
2019-03-03T04:29:08.433Z,49.60
2019-03-03T04:34:21.018Z,60.43
2019-03-03T04:39:33.543Z,64.93
2019-03-03T04:44:43.006Z,67.33
2019-03-03T04:49:49.379Z,89.57
2019-03-03T04:55:01.813Z,63.30
2019-03-03T05:00:21.084Z,42.07
2019-03-03T05:05:36.578Z,47.27
2019-03-03T05:10:42.949Z,42.23
2019-03-03T05:16:07.221Z,64.27
2019-03-03T05:21:11.925Z,58.17
2019-03-03T05:26:16.748Z,65.23
2019-03-03T05:31:21.497Z,68.20
2019-03-03T05:36:26.343Z,78.83
2019-03-03T05:41:31.075Z,84.20
2019-03-03T05:46:35.821Z,78.37
2019-03-03T05:51:40.565Z,99.87
2019-03-03T05:56:45.227Z,86.53
2019-03-03T06:01:50.374Z,146.43
2019-03-03T06:06:55.400Z,135.87
2019-03-03T06:12:00.379Z,186.57
2019-03-03T06:17:05.912Z,135.83
2019-03-03T06:22:10.653Z,182.00
2019-03-03T06:27:15.426Z,273.37
2019-03-03T06:32:20.322Z,353.77
2019-03-03T06:37:26.834Z,418.03
2019-03-03T06:42:31.680Z,326.00
2019-03-03T06:47:36.522Z,283.53
2019-03-03T06:52:41.385Z,227.00
2019-03-03T06:57:46.107Z,128.50
2019-03-03T07:02:50.984Z,130.93
2019-03-03T07:07:55.800Z,105.87
2019-03-03T07:13:00.555Z,90.90
2019-03-03T07:18:07.025Z,66.77
2019-03-03T07:23:12.095Z,62.97
2019-03-03T07:28:20.887Z,78.07
2019-03-03T07:33:28.954Z,102.97
2019-03-03T07:38:38.702Z,151.57
2019-03-03T07:43:44.364Z,167.57
2019-03-03T07:48:49.304Z,158.97
2019-03-03T07:53:54.157Z,316.07
2019-03-03T07:58:59.196Z,180.47
2019-03-03T08:04:04.146Z,210.03
2019-03-03T08:09:10.074Z,113.97
2019-03-03T08:14:15.290Z,62.30
2019-03-03T08:19:20.628Z,68.07
2019-03-03T08:24:25.795Z,64.10
2019-03-03T08:29:30.682Z,67.30
2019-03-03T08:34:35.927Z,65.53
2019-03-03T08:39:41.640Z,66.97
2019-03-03T08:44:48.029Z,62.03
2019-03-03T08:49:54.408Z,71.50
2019-03-03T08:55:01.027Z,59.23
2019-03-03T09:00:18.123Z,56.77
2019-03-03T09:05:36.186Z,58.20
2019-03-03T09:10:42.687Z,79.00
2019-03-03T09:15:54.869Z,65.47
2019-03-03T09:21:21.039Z,60.83
2019-03-03T09:26:45.546Z,75.57
2019-03-03T09:31:55.630Z,77.23
2019-03-03T10:31:36.038Z,76.93
2019-03-03T10:36:45.701Z,65.07
2019-03-03T10:41:56.485Z,49.63
2019-03-03T10:47:19.645Z,59.10
2019-03-03T10:52:33.553Z,59.90
2019-03-03T10:57:50.125Z,55.50
2019-03-03T11:02:59.678Z,57.97
2019-03-03T11:08:07.019Z,54.73
2019-03-03T11:13:16.242Z,59.40
2019-03-03T11:18:27.662Z,69.00
2019-03-03T11:23:50.812Z,72.37
2019-03-03T11:29:12.549Z,68.40
2019-03-03T11:34:18.927Z,62.07
2019-03-03T11:39:31.262Z,67.10
2019-03-03T11:44:52.285Z,61.77
2019-03-03T11:50:01.724Z,65.27
2019-03-03T11:55:21.729Z,68.37
2019-03-03T12:00:28.123Z,61.70
2019-03-03T12:05:53.150Z,53.43
2019-03-03T12:11:10.888Z,55.80
2019-03-03T12:16:24.561Z,52.33
2019-03-03T12:21:37.099Z,46.10
2019-03-03T12:26:46.999Z,43.90
2019-03-03T12:32:02.086Z,48.90
2019-03-03T12:37:15.553Z,44.63
2019-03-03T12:42:27.672Z,37.23
2019-03-03T12:47:46.869Z,33.20
2019-03-03T12:52:54.000Z,33.33
2019-03-03T12:58:10.268Z,85.37
2019-03-03T13:03:23.018Z,31.40
2019-03-03T13:08:45.862Z,51.87
2019-03-03T13:14:04.756Z,38.27
2019-03-03T13:19:27.913Z,41.60
2019-03-03T13:24:42.220Z,71.20
2019-03-03T13:29:48.783Z,36.07
2019-03-03T13:34:55.183Z,168.20
2019-03-03T13:40:04.297Z,27.30
2019-03-03T13:45:12.520Z,28.30
2019-03-03T13:50:17.798Z,26.50
2019-03-03T13:55:35.119Z,25.03
2019-03-03T14:00:41.476Z,29.60
2019-03-03T14:05:47.288Z,26.07
2019-03-03T14:10:52.309Z,26.53
2019-03-03T15:04:46.206Z,51.30
2019-03-03T15:09:51.174Z,35.53
2019-03-03T16:15:12.894Z,62.30
2019-03-03T16:20:21.976Z,46.20
2019-03-03T16:25:26.898Z,70.93
2019-03-03T16:30:31.820Z,54.37
2019-03-03T16:35:37.209Z,85.23
2019-03-03T16:40:46.099Z,58.27
2019-03-03T16:45:51.070Z,42.00
2019-03-03T16:50:57.303Z,43.77
2019-03-03T16:56:02.301Z,35.50
2019-03-03T17:01:09.906Z,37.60
2019-03-03T17:06:16.213Z,28.90
2019-03-03T17:11:21.358Z,38.30
2019-03-03T17:16:26.257Z,27.07
2019-03-03T17:21:31.030Z,31.40
2019-03-03T17:26:37.043Z,38.80
2019-03-03T17:31:43.381Z,39.63
2019-03-03T17:36:49.939Z,47.57
2019-03-03T17:41:54.925Z,63.00
2019-03-03T17:47:00.306Z,46.87
2019-03-03T17:52:05.221Z,47.73
2019-03-03T17:57:10.939Z,51.87
2019-03-03T18:02:16.079Z,41.43
2019-03-03T18:07:22.511Z,35.17
2019-03-03T18:12:27.449Z,28.70
2019-03-03T18:17:34.276Z,29.80
2019-03-03T18:22:43.863Z,44.83
2019-03-03T18:27:53.311Z,41.77
2019-03-03T18:33:03.393Z,56.63
2019-03-03T18:38:12.295Z,72.87
2019-03-03T18:43:24.063Z,58.50
2019-03-03T18:48:38.402Z,61.07
2019-03-03T18:53:44.860Z,66.17
2019-03-03T18:58:52.798Z,58.23
2019-03-03T19:04:00.675Z,41.70
2019-03-03T19:09:08.940Z,41.00
2019-03-03T19:14:28.584Z,43.93
2019-03-03T19:19:32.205Z,34.20
2019-03-03T19:24:39.618Z,33.03
2019-03-03T19:29:47.474Z,30.83
2019-03-03T19:34:52.396Z,31.83
2019-03-03T19:39:58.281Z,30.20
2019-03-03T19:45:04.656Z,32.43
2019-03-03T19:50:13.410Z,38.33
2019-03-03T19:55:20.574Z,38.17
2019-03-03T20:00:35.603Z,42.93
2019-03-03T20:05:38.745Z,46.77
2019-03-03T20:10:43.497Z,71.07
2019-03-03T20:15:49.180Z,62.43
2019-03-03T20:20:54.001Z,55.63
2019-03-03T20:25:59.179Z,45.50
2019-03-03T20:31:04.518Z,46.50
2019-03-03T20:36:09.428Z,52.07
2019-03-03T20:41:14.428Z,51.53
2019-03-03T20:46:20.163Z,39.07
2019-03-03T20:51:27.796Z,38.73
2019-03-03T20:56:32.760Z,38.37
2019-03-03T21:01:38.619Z,37.93
2019-03-03T21:06:43.658Z,61.33
2019-03-03T21:11:48.525Z,71.23
2019-03-03T21:16:53.167Z,51.97
2019-03-03T21:21:58.328Z,67.63
2019-03-03T21:27:03.887Z,71.57
2019-03-03T21:32:08.606Z,56.07
2019-03-03T21:37:13.462Z,66.30
2019-03-03T21:42:18.311Z,72.77
2019-03-03T21:47:23.542Z,52.33
2019-03-03T21:52:28.283Z,63.73
2019-03-03T21:57:34.441Z,59.10
2019-03-03T22:02:41.071Z,39.27
2019-03-03T22:07:47.824Z,38.80
2019-03-03T22:12:53.718Z,43.37
2019-03-03T22:17:59.069Z,37.97
2019-03-03T22:23:04.467Z,95.20
2019-03-03T22:28:09.641Z,48.23
2019-03-03T22:33:16.094Z,32.67
2019-03-03T22:38:22.546Z,120.07
2019-03-03T22:43:27.641Z,38.13
2019-03-03T22:48:32.954Z,31.87
2019-03-03T22:53:37.999Z,39.10
2019-03-03T22:58:45.185Z,45.83
2019-03-03T23:04:02.430Z,34.87
2019-03-03T23:09:13.956Z,35.13
2019-03-03T23:14:29.140Z,55.83
2019-03-03T23:19:43.083Z,44.57
2019-03-03T23:25:24.175Z,48.40
2019-03-03T23:30:29.196Z,64.10
2019-03-03T23:35:34.269Z,48.87
2019-03-03T23:40:39.018Z,55.43
2019-03-03T23:45:43.760Z,60.73
2019-03-03T23:50:48.601Z,53.40
2019-03-03T23:55:53.553Z,54.07
